Agana Heights, GU

8:32 PM ChST on March 27, 2015 (GMT +1000)
West Tinian | | Change Station
CLOSE
Current Station
Airport
Location: Peipeinimaru,
Elevation: 269 ft
Nearby Weather Stations

Elev 269 ft 15.00 °N, 145.62 °E | Updated 42 minutes ago

Light Rain
Light Rain
75 °F
Feels Like 75 °F
N
20
Wind Variable Wind from East
Gusts 25 mph

Today
High -- | Low -- °F
--% Chance of Precip.
Yesterday
High -- | Low -- °F
Precip. -- in
6:20 AM 6:32 PM
Waxing Crescent, 51% visible
Pressure 29.96 in
Visibility 5.0 miles
Clouds Scattered Clouds 1500 ft
Mostly Cloudy 10000 ft
Dew Point 73 °F
Humidity 94%
Rainfall 0.00 in
Snow Depth Not available.
UV 0 out of 12
Pollen Not available.
Air Quality Not available.
Flu Activity Not available.
METAR PGWT 270950Z COR 08017G22KT 5SM -RA SCT015 BKN100 24/23 A2996 RMK LAST

More Conditions Fewer Conditions

Pressure 29.96 in
Visibility 5.0 miles
Clouds Scattered Clouds 1500 ft
Mostly Cloudy 10000 ft
Dew Point 73 °F
Humidity 94%
Rainfall 0.00 in
Snow Depth Not available.
UV 0 out of 12
Pollen Not available.
Air Quality Not available.
Flu Activity Not available.
METAR PGWT 270950Z COR 08017G22KT 5SM -RA SCT015 BKN100 24/23 A2996 RMK LAST

More Conditions Fewer Conditions

10-Day Weather Forecast

Almanac

Astronomy

Mar. 27, 2015 Rise Set
Actual Time
Civil Twilight
Nautical Twilight
Astronomical Twilight
Moon
Length of Visible Light
Length of Day
Tomorrow will be .
, % of the Moon is Illuminated

Today's Extremes

State Highs State Lows

Community

WunderPhotos

Upload Photos

1,808,706 photos uploaded!

WunderBlogs® & News

Nearby

Air Quality

  Air Quality AQ Index Pollutant
Not available.

Snow Depth

Station Depth Elevation

Earthquake Activity

City Distance Mag. Time & Date
Minimum magnitude displayed is 2.5.

Coastal Water Temperatures

Place Temperature

Stations

Nearby Weather Stations

Station Location Temp. Windchill Dew Point Humidity Wind Precip. Elev Updated Type